Terminal Aerodrome Forecast
Issued by NWS

Home | Current Version | Previous Version | Text Only | Print | Product List | Glossary On
Versions: 1 2 3 4 5 6 7 8 9 10 11 12 13 14 15 16 17 18 19
889
FTUS46 KLOX 220538
TAFSBP
TAF
KSBP 220538Z 2206/2306 30006KT P6SM SKC
     FM220800 31004KT P6SM SCT008
     FM221000 VRB03KT P6SM BKN008
     FM221700 31006KT P6SM SCT012
     FM222200 31012KT P6SM SKC
     FM230300 31006KT P6SM SKC=

USA.gov is the U.S. government's official web portal to all federal, state and local government web resources and services.